sensor_id;sensor_type;location;lat;lon;timestamp;P1;durP1;ratioP1;P2;durP2;ratioP2
4909;SDS011;2470;49.868;8.660;2023-11-21T00:00:54;3.37;;;2.30;;
4909;SDS011;2470;49.868;8.660;2023-11-21T00:03:20;5.73;;;2.07;;
4909;SDS011;2470;49.868;8.660;2023-11-21T00:05:48;2.37;;;1.40;;
4909;SDS011;2470;49.868;8.660;2023-11-21T00:08:14;2.50;;;1.60;;
4909;SDS011;2470;49.868;8.660;2023-11-21T00:10:39;2.20;;;1.40;;
4909;SDS011;2470;49.868;8.660;2023-11-21T00:13:05;12.73;;;1.90;;
4909;SDS011;2470;49.868;8.660;2023-11-21T00:15:30;6.80;;;1.77;;
4909;SDS011;2470;49.868;8.660;2023-11-21T00:17:56;3.53;;;2.00;;
4909;SDS011;2470;49.868;8.660;2023-11-21T00:20:21;3.80;;;1.50;;
4909;SDS011;2470;49.868;8.660;2023-11-21T00:22:47;3.80;;;1.50;;
4909;SDS011;2470;49.868;8.660;2023-11-21T00:25:12;2.00;;;1.60;;
4909;SDS011;2470;49.868;8.660;2023-11-21T00:27:41;16.57;;;2.50;;
4909;SDS011;2470;49.868;8.660;2023-11-21T00:30:07;5.50;;;2.00;;
4909;SDS011;2470;49.868;8.660;2023-11-21T00:32:35;4.80;;;2.00;;
4909;SDS011;2470;49.868;8.660;2023-11-21T00:35:01;6.53;;;1.57;;
4909;SDS011;2470;49.868;8.660;2023-11-21T00:37:27;3.13;;;2.00;;
4909;SDS011;2470;49.868;8.660;2023-11-21T00:39:52;4.33;;;2.30;;
4909;SDS011;2470;49.868;8.660;2023-11-21T00:42:18;3.33;;;1.80;;
4909;SDS011;2470;49.868;8.660;2023-11-21T00:44:44;1.60;;;1.50;;
4909;SDS011;2470;49.868;8.660;2023-11-21T00:47:09;3.53;;;1.77;;
4909;SDS011;2470;49.868;8.660;2023-11-21T00:49:35;5.00;;;1.83;;
4909;SDS011;2470;49.868;8.660;2023-11-21T00:52:00;2.20;;;1.63;;
4909;SDS011;2470;49.868;8.660;2023-11-21T00:54:27;3.90;;;1.83;;
4909;SDS011;2470;49.868;8.660;2023-11-21T00:56:53;3.37;;;1.67;;
4909;SDS011;2470;49.868;8.660;2023-11-21T00:59:18;5.40;;;2.00;;
4909;SDS011;2470;49.868;8.660;2023-11-21T01:01:44;7.90;;;1.77;;
4909;SDS011;2470;49.868;8.660;2023-11-21T01:04:09;3.50;;;1.80;;
4909;SDS011;2470;49.868;8.660;2023-11-21T01:06:35;3.17;;;1.93;;
4909;SDS011;2470;49.868;8.660;2023-11-21T01:09:01;5.80;;;1.50;;
4909;SDS011;2470;49.868;8.660;2023-11-21T01:11:32;2.10;;;1.57;;
4909;SDS011;2470;49.868;8.660;2023-11-21T01:14:00;1.60;;;1.50;;
4909;SDS011;2470;49.868;8.660;2023-11-21T01:16:28;9.33;;;2.87;;
4909;SDS011;2470;49.868;8.660;2023-11-21T01:18:54;2.20;;;2.00;;
4909;SDS011;2470;49.868;8.660;2023-11-21T01:21:19;5.87;;;2.53;;
4909;SDS011;2470;49.868;8.660;2023-11-21T01:23:45;4.83;;;2.43;;
4909;SDS011;2470;49.868;8.660;2023-11-21T01:26:10;3.20;;;2.13;;
4909;SDS011;2470;49.868;8.660;2023-11-21T01:28:36;5.20;;;2.97;;
4909;SDS011;2470;49.868;8.660;2023-11-21T01:31:02;4.20;;;2.87;;
4909;SDS011;2470;49.868;8.660;2023-11-21T01:33:27;3.40;;;2.40;;
4909;SDS011;2470;49.868;8.660;2023-11-21T01:35:53;3.87;;;2.97;;
4909;SDS011;2470;49.868;8.660;2023-11-21T01:38:19;5.40;;;2.80;;
4909;SDS011;2470;49.868;8.660;2023-11-21T01:40:45;9.87;;;2.80;;
4909;SDS011;2470;49.868;8.660;2023-11-21T01:43:11;9.53;;;2.67;;
4909;SDS011;2470;49.868;8.660;2023-11-21T01:45:36;6.60;;;2.30;;
4909;SDS011;2470;49.868;8.660;2023-11-21T01:48:02;4.40;;;2.83;;
4909;SDS011;2470;49.868;8.660;2023-11-21T01:50:28;4.40;;;2.77;;
4909;SDS011;2470;49.868;8.660;2023-11-21T01:52:54;5.00;;;3.17;;
4909;SDS011;2470;49.868;8.660;2023-11-21T01:55:20;5.27;;;2.87;;
4909;SDS011;2470;49.868;8.660;2023-11-21T01:57:46;6.50;;;3.50;;
4909;SDS011;2470;49.868;8.660;2023-11-21T02:00:12;5.43;;;3.43;;
4909;SDS011;2470;49.868;8.660;2023-11-21T02:02:44;12.80;;;3.50;;
4909;SDS011;2470;49.868;8.660;2023-11-21T02:05:11;8.50;;;3.90;;
4909;SDS011;2470;49.868;8.660;2023-11-21T02:07:38;6.57;;;3.00;;
4909;SDS011;2470;49.868;8.660;2023-11-21T02:10:05;6.00;;;2.90;;
4909;SDS011;2470;49.868;8.660;2023-11-21T02:12:32;7.40;;;3.63;;
4909;SDS011;2470;49.868;8.660;2023-11-21T02:14:57;4.90;;;3.30;;
4909;SDS011;2470;49.868;8.660;2023-11-21T02:17:23;10.40;;;3.60;;
4909;SDS011;2470;49.868;8.660;2023-11-21T02:19:49;8.40;;;3.20;;
4909;SDS011;2470;49.868;8.660;2023-11-21T02:22:16;4.90;;;3.60;;
4909;SDS011;2470;49.868;8.660;2023-11-21T02:24:43;7.27;;;3.17;;
4909;SDS011;2470;49.868;8.660;2023-11-21T02:27:12;6.47;;;3.83;;
4909;SDS011;2470;49.868;8.660;2023-11-21T02:29:38;9.77;;;3.10;;
4909;SDS011;2470;49.868;8.660;2023-11-21T02:32:03;7.73;;;3.90;;
4909;SDS011;2470;49.868;8.660;2023-11-21T02:34:29;5.23;;;3.50;;
4909;SDS011;2470;49.868;8.660;2023-11-21T02:36:54;8.90;;;4.30;;
4909;SDS011;2470;49.868;8.660;2023-11-21T02:39:20;6.80;;;3.60;;
4909;SDS011;2470;49.868;8.660;2023-11-21T02:41:47;6.33;;;3.10;;
4909;SDS011;2470;49.868;8.660;2023-11-21T02:44:13;6.00;;;3.50;;
4909;SDS011;2470;49.868;8.660;2023-11-21T02:46:38;6.20;;;3.20;;
4909;SDS011;2470;49.868;8.660;2023-11-21T02:49:05;4.30;;;3.10;;
4909;SDS011;2470;49.868;8.660;2023-11-21T02:51:35;11.90;;;3.90;;
4909;SDS011;2470;49.868;8.660;2023-11-21T02:54:02;8.17;;;3.63;;
4909;SDS011;2470;49.868;8.660;2023-11-21T02:56:31;5.33;;;3.93;;
4909;SDS011;2470;49.868;8.660;2023-11-21T02:58:58;7.90;;;4.30;;
4909;SDS011;2470;49.868;8.660;2023-11-21T03:01:24;6.30;;;3.40;;
4909;SDS011;2470;49.868;8.660;2023-11-21T03:03:50;4.30;;;3.50;;
4909;SDS011;2470;49.868;8.660;2023-11-21T03:06:19;5.07;;;3.50;;
4909;SDS011;2470;49.868;8.660;2023-11-21T03:08:45;9.43;;;4.13;;
4909;SDS011;2470;49.868;8.660;2023-11-21T03:11:11;6.97;;;4.10;;
4909;SDS011;2470;49.868;8.660;2023-11-21T03:13:40;20.20;;;4.47;;
4909;SDS011;2470;49.868;8.660;2023-11-21T03:16:09;12.80;;;4.50;;
4909;SDS011;2470;49.868;8.660;2023-11-21T03:18:35;5.07;;;3.63;;
4909;SDS011;2470;49.868;8.660;2023-11-21T03:21:04;12.73;;;4.50;;
4909;SDS011;2470;49.868;8.660;2023-11-21T03:23:31;9.93;;;4.13;;
4909;SDS011;2470;49.868;8.660;2023-11-21T03:25:56;6.10;;;4.77;;
4909;SDS011;2470;49.868;8.660;2023-11-21T03:28:23;9.33;;;4.40;;
4909;SDS011;2470;49.868;8.660;2023-11-21T03:30:48;3.90;;;3.60;;
4909;SDS011;2470;49.868;8.660;2023-11-21T03:33:14;6.07;;;4.33;;
4909;SDS011;2470;49.868;8.660;2023-11-21T03:35:39;5.30;;;3.93;;
4909;SDS011;2470;49.868;8.660;2023-11-21T03:38:07;7.47;;;4.47;;
4909;SDS011;2470;49.868;8.660;2023-11-21T03:40:32;5.40;;;4.20;;
4909;SDS011;2470;49.868;8.660;2023-11-21T03:42:58;16.33;;;5.10;;
4909;SDS011;2470;49.868;8.660;2023-11-21T03:45:24;9.10;;;4.43;;
4909;SDS011;2470;49.868;8.660;2023-11-21T03:47:49;11.97;;;4.40;;
4909;SDS011;2470;49.868;8.660;2023-11-21T03:50:15;10.10;;;4.23;;
4909;SDS011;2470;49.868;8.660;2023-11-21T03:52:40;5.57;;;3.97;;
4909;SDS011;2470;49.868;8.660;2023-11-21T03:55:06;17.60;;;4.90;;
4909;SDS011;2470;49.868;8.660;2023-11-21T03:57:32;5.77;;;4.57;;
4909;SDS011;2470;49.868;8.660;2023-11-21T03:59:57;9.50;;;5.70;;
4909;SDS011;2470;49.868;8.660;2023-11-21T04:02:23;7.80;;;4.83;;
4909;SDS011;2470;49.868;8.660;2023-11-21T04:04:50;8.07;;;4.73;;
4909;SDS011;2470;49.868;8.660;2023-11-21T04:07:16;12.30;;;5.10;;
4909;SDS011;2470;49.868;8.660;2023-11-21T04:09:42;4.67;;;3.73;;
4909;SDS011;2470;49.868;8.660;2023-11-21T04:12:08;13.97;;;5.27;;
4909;SDS011;2470;49.868;8.660;2023-11-21T04:14:34;10.37;;;5.53;;
4909;SDS011;2470;49.868;8.660;2023-11-21T04:17:00;12.00;;;5.60;;
4909;SDS011;2470;49.868;8.660;2023-11-21T04:19:25;10.50;;;5.77;;
4909;SDS011;2470;49.868;8.660;2023-11-21T04:21:51;7.17;;;4.50;;
4909;SDS011;2470;49.868;8.660;2023-11-21T04:24:16;5.60;;;4.80;;
4909;SDS011;2470;49.868;8.660;2023-11-21T04:26:43;13.80;;;5.53;;
4909;SDS011;2470;49.868;8.660;2023-11-21T04:29:08;13.20;;;6.50;;
4909;SDS011;2470;49.868;8.660;2023-11-21T04:31:34;9.10;;;5.40;;
4909;SDS011;2470;49.868;8.660;2023-11-21T04:33:59;17.30;;;5.30;;
4909;SDS011;2470;49.868;8.660;2023-11-21T04:36:25;9.00;;;6.10;;
4909;SDS011;2470;49.868;8.660;2023-11-21T04:38:51;17.53;;;6.40;;
4909;SDS011;2470;49.868;8.660;2023-11-21T04:41:16;11.93;;;6.03;;
4909;SDS011;2470;49.868;8.660;2023-11-21T04:43:43;7.80;;;5.70;;
4909;SDS011;2470;49.868;8.660;2023-11-21T04:46:08;8.57;;;6.00;;
4909;SDS011;2470;49.868;8.660;2023-11-21T04:48:34;9.43;;;6.53;;
4909;SDS011;2470;49.868;8.660;2023-11-21T04:50:59;6.50;;;5.13;;
4909;SDS011;2470;49.868;8.660;2023-11-21T04:53:25;11.17;;;6.73;;
4909;SDS011;2470;49.868;8.660;2023-11-21T04:55:50;16.13;;;6.07;;
4909;SDS011;2470;49.868;8.660;2023-11-21T04:58:16;10.23;;;6.20;;
4909;SDS011;2470;49.868;8.660;2023-11-21T05:00:41;6.43;;;5.70;;
4909;SDS011;2470;49.868;8.660;2023-11-21T05:03:07;9.80;;;6.50;;
4909;SDS011;2470;49.868;8.660;2023-11-21T05:05:32;8.77;;;6.50;;
4909;SDS011;2470;49.868;8.660;2023-11-21T05:08:02;27.10;;;7.13;;
4909;SDS011;2470;49.868;8.660;2023-11-21T05:10:28;19.70;;;7.00;;
4909;SDS011;2470;49.868;8.660;2023-11-21T05:12:54;21.67;;;7.70;;
4909;SDS011;2470;49.868;8.660;2023-11-21T05:15:20;18.97;;;6.97;;
4909;SDS011;2470;49.868;8.660;2023-11-21T05:17:46;12.40;;;7.10;;
4909;SDS011;2470;49.868;8.660;2023-11-21T05:20:15;13.50;;;6.57;;
4909;SDS011;2470;49.868;8.660;2023-11-21T05:22:48;9.97;;;6.57;;
4909;SDS011;2470;49.868;8.660;2023-11-21T05:25:14;9.50;;;6.33;;
4909;SDS011;2470;49.868;8.660;2023-11-21T05:27:39;9.00;;;5.70;;
4909;SDS011;2470;49.868;8.660;2023-11-21T05:30:05;11.50;;;5.10;;
4909;SDS011;2470;49.868;8.660;2023-11-21T05:32:34;10.37;;;4.90;;
4909;SDS011;2470;49.868;8.660;2023-11-21T05:35:00;8.77;;;4.73;;
4909;SDS011;2470;49.868;8.660;2023-11-21T05:37:26;6.33;;;4.80;;
4909;SDS011;2470;49.868;8.660;2023-11-21T05:39:52;7.03;;;4.70;;
4909;SDS011;2470;49.868;8.660;2023-11-21T05:42:19;9.20;;;3.97;;
4909;SDS011;2470;49.868;8.660;2023-11-21T05:44:45;2.40;;;2.20;;
4909;SDS011;2470;49.868;8.660;2023-11-21T05:47:11;2.10;;;1.97;;
4909;SDS011;2470;49.868;8.660;2023-11-21T05:49:38;3.53;;;1.87;;
4909;SDS011;2470;49.868;8.660;2023-11-21T05:52:04;5.03;;;2.10;;
4909;SDS011;2470;49.868;8.660;2023-11-21T05:54:30;2.10;;;1.67;;
4909;SDS011;2470;49.868;8.660;2023-11-21T05:56:56;1.63;;;1.53;;
4909;SDS011;2470;49.868;8.660;2023-11-21T05:59:21;1.93;;;1.50;;
4909;SDS011;2470;49.868;8.660;2023-11-21T06:01:47;2.40;;;1.77;;
4909;SDS011;2470;49.868;8.660;2023-11-21T06:04:13;1.90;;;1.80;;
4909;SDS011;2470;49.868;8.660;2023-11-21T06:06:38;1.50;;;1.40;;
4909;SDS011;2470;49.868;8.660;2023-11-21T06:09:04;2.97;;;2.00;;
4909;SDS011;2470;49.868;8.660;2023-11-21T06:11:31;2.00;;;1.80;;
4909;SDS011;2470;49.868;8.660;2023-11-21T06:13:57;2.30;;;1.97;;
4909;SDS011;2470;49.868;8.660;2023-11-21T06:16:23;1.87;;;1.77;;
4909;SDS011;2470;49.868;8.660;2023-11-21T06:18:49;4.53;;;2.03;;
4909;SDS011;2470;49.868;8.660;2023-11-21T06:21:14;4.20;;;2.00;;
4909;SDS011;2470;49.868;8.660;2023-11-21T06:23:41;4.30;;;3.30;;
4909;SDS011;2470;49.868;8.660;2023-11-21T06:26:07;9.97;;;5.50;;
4909;SDS011;2470;49.868;8.660;2023-11-21T06:28:34;6.23;;;2.50;;
4909;SDS011;2470;49.868;8.660;2023-11-21T06:30:59;19.83;;;8.33;;
4909;SDS011;2470;49.868;8.660;2023-11-21T06:33:29;6.90;;;3.90;;
4909;SDS011;2470;49.868;8.660;2023-11-21T06:35:56;4.57;;;2.90;;
4909;SDS011;2470;49.868;8.660;2023-11-21T06:38:21;15.20;;;5.80;;
4909;SDS011;2470;49.868;8.660;2023-11-21T06:40:47;7.40;;;4.40;;
4909;SDS011;2470;49.868;8.660;2023-11-21T06:43:13;7.33;;;2.30;;
4909;SDS011;2470;49.868;8.660;2023-11-21T06:45:39;17.80;;;7.20;;
4909;SDS011;2470;49.868;8.660;2023-11-21T06:48:04;11.57;;;5.37;;
4909;SDS011;2470;49.868;8.660;2023-11-21T06:50:30;18.63;;;7.83;;
4909;SDS011;2470;49.868;8.660;2023-11-21T06:52:56;31.93;;;10.37;;
4909;SDS011;2470;49.868;8.660;2023-11-21T06:55:21;15.90;;;8.43;;
4909;SDS011;2470;49.868;8.660;2023-11-21T06:57:47;3.40;;;2.60;;
4909;SDS011;2470;49.868;8.660;2023-11-21T07:00:13;22.47;;;8.00;;
4909;SDS011;2470;49.868;8.660;2023-11-21T07:02:42;21.73;;;8.57;;
4909;SDS011;2470;49.868;8.660;2023-11-21T07:05:08;23.43;;;8.03;;
4909;SDS011;2470;49.868;8.660;2023-11-21T07:07:33;8.30;;;3.90;;
4909;SDS011;2470;49.868;8.660;2023-11-21T07:10:00;9.07;;;4.23;;
4909;SDS011;2470;49.868;8.660;2023-11-21T07:12:28;8.90;;;4.63;;
4909;SDS011;2470;49.868;8.660;2023-11-21T07:14:55;13.20;;;6.43;;
4909;SDS011;2470;49.868;8.660;2023-11-21T07:17:20;5.67;;;3.13;;
4909;SDS011;2470;49.868;8.660;2023-11-21T07:19:48;17.73;;;6.57;;
4909;SDS011;2470;49.868;8.660;2023-11-21T07:22:14;5.57;;;3.60;;
4909;SDS011;2470;49.868;8.660;2023-11-21T07:24:46;5.50;;;4.00;;
4909;SDS011;2470;49.868;8.660;2023-11-21T07:27:13;48.27;;;16.50;;
4909;SDS011;2470;49.868;8.660;2023-11-21T07:29:38;5.77;;;4.00;;
4909;SDS011;2470;49.868;8.660;2023-11-21T07:32:04;8.47;;;5.37;;
4909;SDS011;2470;49.868;8.660;2023-11-21T07:34:30;11.67;;;6.40;;
4909;SDS011;2470;49.868;8.660;2023-11-21T07:36:56;7.13;;;3.93;;
4909;SDS011;2470;49.868;8.660;2023-11-21T07:39:21;5.57;;;4.03;;
4909;SDS011;2470;49.868;8.660;2023-11-21T07:41:47;16.70;;;8.20;;
4909;SDS011;2470;49.868;8.660;2023-11-21T07:44:16;23.87;;;9.00;;
4909;SDS011;2470;49.868;8.660;2023-11-21T07:46:42;27.30;;;10.10;;
4909;SDS011;2470;49.868;8.660;2023-11-21T07:49:08;14.20;;;7.50;;
4909;SDS011;2470;49.868;8.660;2023-11-21T07:51:34;19.07;;;6.53;;
4909;SDS011;2470;49.868;8.660;2023-11-21T07:53:59;23.30;;;10.37;;
4909;SDS011;2470;49.868;8.660;2023-11-21T07:56:25;12.57;;;7.30;;
4909;SDS011;2470;49.868;8.660;2023-11-21T07:58:51;13.50;;;7.53;;
4909;SDS011;2470;49.868;8.660;2023-11-21T08:01:17;18.13;;;9.50;;
4909;SDS011;2470;49.868;8.660;2023-11-21T08:03:42;19.37;;;7.83;;
4909;SDS011;2470;49.868;8.660;2023-11-21T08:06:09;13.40;;;7.43;;
4909;SDS011;2470;49.868;8.660;2023-11-21T08:08:34;12.57;;;6.97;;
4909;SDS011;2470;49.868;8.660;2023-11-21T08:11:00;13.00;;;6.97;;
4909;SDS011;2470;49.868;8.660;2023-11-21T08:13:27;10.13;;;6.40;;
4909;SDS011;2470;49.868;8.660;2023-11-21T08:15:54;8.73;;;6.30;;
4909;SDS011;2470;49.868;8.660;2023-11-21T08:18:20;13.60;;;6.63;;
4909;SDS011;2470;49.868;8.660;2023-11-21T08:20:46;12.40;;;7.20;;
4909;SDS011;2470;49.868;8.660;2023-11-21T08:23:17;10.00;;;6.40;;
4909;SDS011;2470;49.868;8.660;2023-11-21T08:25:46;10.53;;;6.57;;
4909;SDS011;2470;49.868;8.660;2023-11-21T08:28:12;14.40;;;7.70;;
4909;SDS011;2470;49.868;8.660;2023-11-21T08:30:41;12.03;;;7.00;;
4909;SDS011;2470;49.868;8.660;2023-11-21T08:33:07;11.23;;;6.37;;
4909;SDS011;2470;49.868;8.660;2023-11-21T08:35:33;12.57;;;6.83;;
4909;SDS011;2470;49.868;8.660;2023-11-21T08:37:59;12.77;;;6.90;;
4909;SDS011;2470;49.868;8.660;2023-11-21T08:40:25;9.50;;;6.07;;
4909;SDS011;2470;49.868;8.660;2023-11-21T08:42:51;13.00;;;7.20;;
4909;SDS011;2470;49.868;8.660;2023-11-21T08:45:19;10.73;;;5.50;;
4909;SDS011;2470;49.868;8.660;2023-11-21T08:47:46;14.07;;;7.43;;
4909;SDS011;2470;49.868;8.660;2023-11-21T08:50:12;9.80;;;5.67;;
4909;SDS011;2470;49.868;8.660;2023-11-21T08:52:39;22.90;;;6.37;;
4909;SDS011;2470;49.868;8.660;2023-11-21T08:55:05;14.23;;;5.50;;
4909;SDS011;2470;49.868;8.660;2023-11-21T08:57:37;9.67;;;6.17;;
4909;SDS011;2470;49.868;8.660;2023-11-21T09:00:07;12.10;;;6.70;;
4909;SDS011;2470;49.868;8.660;2023-11-21T09:02:36;10.30;;;6.07;;
4909;SDS011;2470;49.868;8.660;2023-11-21T09:05:07;11.83;;;5.57;;
4909;SDS011;2470;49.868;8.660;2023-11-21T09:07:34;7.40;;;5.20;;
4909;SDS011;2470;49.868;8.660;2023-11-21T09:10:00;8.70;;;5.00;;
4909;SDS011;2470;49.868;8.660;2023-11-21T09:12:26;8.43;;;5.33;;
4909;SDS011;2470;49.868;8.660;2023-11-21T09:14:51;7.37;;;4.40;;
4909;SDS011;2470;49.868;8.660;2023-11-21T09:17:17;7.50;;;4.60;;
4909;SDS011;2470;49.868;8.660;2023-11-21T09:19:42;14.50;;;5.93;;
4909;SDS011;2470;49.868;8.660;2023-11-21T09:22:16;9.40;;;4.97;;
4909;SDS011;2470;49.868;8.660;2023-11-21T09:24:42;7.53;;;4.60;;
4909;SDS011;2470;49.868;8.660;2023-11-21T09:27:08;9.60;;;4.87;;
4909;SDS011;2470;49.868;8.660;2023-11-21T09:29:34;9.40;;;3.77;;
4909;SDS011;2470;49.868;8.660;2023-11-21T09:32:00;10.43;;;3.83;;
4909;SDS011;2470;49.868;8.660;2023-11-21T09:34:26;6.73;;;3.63;;
4909;SDS011;2470;49.868;8.660;2023-11-21T09:36:51;11.97;;;3.90;;
4909;SDS011;2470;49.868;8.660;2023-11-21T09:39:18;4.87;;;3.40;;
4909;SDS011;2470;49.868;8.660;2023-11-21T09:41:44;7.90;;;4.23;;
4909;SDS011;2470;49.868;8.660;2023-11-21T09:44:20;5.47;;;3.97;;
4909;SDS011;2470;49.868;8.660;2023-11-21T09:46:53;7.43;;;3.20;;
4909;SDS011;2470;49.868;8.660;2023-11-21T09:49:22;8.20;;;3.90;;
4909;SDS011;2470;49.868;8.660;2023-11-21T09:51:50;27.17;;;4.00;;
4909;SDS011;2470;49.868;8.660;2023-11-21T09:54:19;6.87;;;3.53;;
4909;SDS011;2470;49.868;8.660;2023-11-21T09:56:46;5.07;;;3.63;;
4909;SDS011;2470;49.868;8.660;2023-11-21T09:59:13;10.10;;;3.90;;
4909;SDS011;2470;49.868;8.660;2023-11-21T10:01:41;7.00;;;4.10;;
4909;SDS011;2470;49.868;8.660;2023-11-21T10:04:07;13.73;;;4.23;;
4909;SDS011;2470;49.868;8.660;2023-11-21T10:06:39;8.63;;;3.80;;
4909;SDS011;2470;49.868;8.660;2023-11-21T10:09:10;8.20;;;4.83;;
4909;SDS011;2470;49.868;8.660;2023-11-21T10:11:41;7.73;;;4.57;;
4909;SDS011;2470;49.868;8.660;2023-11-21T10:14:10;5.93;;;4.27;;
4909;SDS011;2470;49.868;8.660;2023-11-21T10:16:37;11.67;;;5.63;;
4909;SDS011;2470;49.868;8.660;2023-11-21T10:19:04;9.57;;;4.87;;
4909;SDS011;2470;49.868;8.660;2023-11-21T10:21:32;12.73;;;4.57;;
4909;SDS011;2470;49.868;8.660;2023-11-21T10:23:58;7.77;;;4.07;;
4909;SDS011;2470;49.868;8.660;2023-11-21T10:26:24;7.33;;;4.80;;
4909;SDS011;2470;49.868;8.660;2023-11-21T10:28:57;11.77;;;4.57;;
4909;SDS011;2470;49.868;8.660;2023-11-21T10:31:23;8.97;;;4.90;;
4909;SDS011;2470;49.868;8.660;2023-11-21T10:33:51;7.70;;;4.10;;
4909;SDS011;2470;49.868;8.660;2023-11-21T10:36:26;12.00;;;4.53;;
4909;SDS011;2470;49.868;8.660;2023-11-21T10:38:53;6.70;;;4.30;;
4909;SDS011;2470;49.868;8.660;2023-11-21T10:41:20;16.80;;;7.60;;
4909;SDS011;2470;49.868;8.660;2023-11-21T10:43:46;7.57;;;4.77;;
4909;SDS011;2470;49.868;8.660;2023-11-21T10:46:11;36.77;;;14.47;;
4909;SDS011;2470;49.868;8.660;2023-11-21T10:48:39;14.33;;;6.83;;
4909;SDS011;2470;49.868;8.660;2023-11-21T10:51:09;26.77;;;10.87;;
4909;SDS011;2470;49.868;8.660;2023-11-21T10:53:38;6.80;;;4.37;;
4909;SDS011;2470;49.868;8.660;2023-11-21T10:56:08;10.50;;;4.47;;
4909;SDS011;2470;49.868;8.660;2023-11-21T10:58:42;8.13;;;4.37;;
4909;SDS011;2470;49.868;8.660;2023-11-21T11:01:08;17.03;;;6.03;;
4909;SDS011;2470;49.868;8.660;2023-11-21T11:03:39;12.73;;;5.53;;
4909;SDS011;2470;49.868;8.660;2023-11-21T11:06:06;16.90;;;5.83;;
4909;SDS011;2470;49.868;8.660;2023-11-21T11:08:39;14.13;;;6.30;;
4909;SDS011;2470;49.868;8.660;2023-11-21T11:11:06;14.57;;;4.97;;
4909;SDS011;2470;49.868;8.660;2023-11-21T11:13:32;12.00;;;4.20;;
4909;SDS011;2470;49.868;8.660;2023-11-21T11:15:59;8.60;;;4.27;;
4909;SDS011;2470;49.868;8.660;2023-11-21T11:18:31;11.17;;;5.50;;
4909;SDS011;2470;49.868;8.660;2023-11-21T11:21:36;8.00;;;4.80;;
4909;SDS011;2470;49.868;8.660;2023-11-21T11:29:17;11.10;;;6.10;;
4909;SDS011;2470;49.868;8.660;2023-11-21T11:32:08;16.30;;;6.37;;
4909;SDS011;2470;49.868;8.660;2023-11-21T11:37:24;10.90;;;4.67;;
4909;SDS011;2470;49.868;8.660;2023-11-21T11:39:50;6.23;;;3.37;;
4909;SDS011;2470;49.868;8.660;2023-11-21T11:42:17;10.60;;;3.40;;
4909;SDS011;2470;49.868;8.660;2023-11-21T11:47:14;4.73;;;2.40;;
4909;SDS011;2470;49.868;8.660;2023-11-21T11:49:59;6.18;;;3.00;;
4909;SDS011;2470;49.868;8.660;2023-11-21T11:55:05;3.70;;;2.70;;
4909;SDS011;2470;49.868;8.660;2023-11-21T11:57:34;4.68;;;2.25;;
4909;SDS011;2470;49.868;8.660;2023-11-21T12:00:16;8.30;;;3.80;;
4909;SDS011;2470;49.868;8.660;2023-11-21T12:03:08;7.22;;;2.95;;
4909;SDS011;2470;49.868;8.660;2023-11-21T12:05:34;8.85;;;3.70;;
4909;SDS011;2470;49.868;8.660;2023-11-21T12:08:03;13.98;;;5.65;;
4909;SDS011;2470;49.868;8.660;2023-11-21T12:10:31;7.00;;;3.53;;
4909;SDS011;2470;49.868;8.660;2023-11-21T12:12:59;5.88;;;2.40;;
4909;SDS011;2470;49.868;8.660;2023-11-21T12:15:32;7.90;;;5.35;;
4909;SDS011;2470;49.868;8.660;2023-11-21T12:17:58;15.18;;;6.72;;
4909;SDS011;2470;49.868;8.660;2023-11-21T12:20:25;17.00;;;6.57;;
4909;SDS011;2470;49.868;8.660;2023-11-21T12:22:52;7.50;;;3.65;;
4909;SDS011;2470;49.868;8.660;2023-11-21T12:25:19;12.50;;;4.70;;
4909;SDS011;2470;49.868;8.660;2023-11-21T12:27:53;7.93;;;3.70;;
4909;SDS011;2470;49.868;8.660;2023-11-21T12:30:20;5.75;;;3.50;;
4909;SDS011;2470;49.868;8.660;2023-11-21T12:32:50;10.15;;;3.58;;
4909;SDS011;2470;49.868;8.660;2023-11-21T12:35:17;22.13;;;3.88;;
4909;SDS011;2470;49.868;8.660;2023-11-21T12:37:45;7.75;;;2.58;;
4909;SDS011;2470;49.868;8.660;2023-11-21T12:40:12;9.93;;;3.92;;
4909;SDS011;2470;49.868;8.660;2023-11-21T12:42:43;6.22;;;3.20;;
4909;SDS011;2470;49.868;8.660;2023-11-21T12:47:40;13.13;;;4.95;;
4909;SDS011;2470;49.868;8.660;2023-11-21T12:50:07;11.40;;;5.15;;
4909;SDS011;2470;49.868;8.660;2023-11-21T12:52:39;21.92;;;10.60;;
4909;SDS011;2470;49.868;8.660;2023-11-21T12:55:24;18.77;;;6.90;;
4909;SDS011;2470;49.868;8.660;2023-11-21T12:57:51;6.80;;;3.92;;
4909;SDS011;2470;49.868;8.660;2023-11-21T13:00:19;5.37;;;3.50;;
4909;SDS011;2470;49.868;8.660;2023-11-21T13:02:55;10.53;;;4.03;;
4909;SDS011;2470;49.868;8.660;2023-11-21T13:05:29;7.10;;;4.40;;
4909;SDS011;2470;49.868;8.660;2023-11-21T13:08:00;15.80;;;4.33;;
4909;SDS011;2470;49.868;8.660;2023-11-21T13:10:28;9.13;;;3.70;;
4909;SDS011;2470;49.868;8.660;2023-11-21T13:13:02;5.37;;;2.80;;
4909;SDS011;2470;49.868;8.660;2023-11-21T13:15:33;7.33;;;4.50;;
4909;SDS011;2470;49.868;8.660;2023-11-21T13:18:00;6.43;;;3.50;;
4909;SDS011;2470;49.868;8.660;2023-11-21T13:20:25;9.60;;;3.80;;
4909;SDS011;2470;49.868;8.660;2023-11-21T13:25:27;5.10;;;3.43;;
4909;SDS011;2470;49.868;8.660;2023-11-21T13:27:57;9.20;;;3.63;;
4909;SDS011;2470;49.868;8.660;2023-11-21T13:30:26;11.83;;;4.13;;
4909;SDS011;2470;49.868;8.660;2023-11-21T13:32:58;11.87;;;4.60;;
4909;SDS011;2470;49.868;8.660;2023-11-21T13:35:35;8.90;;;5.07;;
4909;SDS011;2470;49.868;8.660;2023-11-21T13:38:12;8.30;;;4.63;;
4909;SDS011;2470;49.868;8.660;2023-11-21T13:40:42;15.50;;;3.50;;
4909;SDS011;2470;49.868;8.660;2023-11-21T13:43:14;10.30;;;3.97;;
4909;SDS011;2470;49.868;8.660;2023-11-21T13:45:46;5.70;;;3.70;;
4909;SDS011;2470;49.868;8.660;2023-11-21T13:48:20;6.40;;;3.40;;
4909;SDS011;2470;49.868;8.660;2023-11-21T13:50:53;8.20;;;2.93;;
4909;SDS011;2470;49.868;8.660;2023-11-21T13:53:24;5.57;;;4.07;;
4909;SDS011;2470;49.868;8.660;2023-11-21T13:55:50;8.30;;;4.20;;
4909;SDS011;2470;49.868;8.660;2023-11-21T13:58:19;8.53;;;3.87;;
4909;SDS011;2470;49.868;8.660;2023-11-21T14:00:59;5.30;;;3.77;;
4909;SDS011;2470;49.868;8.660;2023-11-21T14:03:26;12.50;;;4.07;;
4909;SDS011;2470;49.868;8.660;2023-11-21T14:06:04;4.97;;;3.70;;
4909;SDS011;2470;49.868;8.660;2023-11-21T14:08:39;16.43;;;4.23;;
4909;SDS011;2470;49.868;8.660;2023-11-21T14:11:06;11.40;;;4.10;;
4909;SDS011;2470;49.868;8.660;2023-11-21T14:13:32;7.30;;;3.70;;
4909;SDS011;2470;49.868;8.660;2023-11-21T14:15:58;6.13;;;4.13;;
4909;SDS011;2470;49.868;8.660;2023-11-21T14:18:27;8.97;;;3.90;;
4909;SDS011;2470;49.868;8.660;2023-11-21T14:21:03;5.97;;;3.23;;
4909;SDS011;2470;49.868;8.660;2023-11-21T14:23:30;7.67;;;4.33;;
4909;SDS011;2470;49.868;8.660;2023-11-21T14:25:56;8.60;;;3.50;;
4909;SDS011;2470;49.868;8.660;2023-11-21T14:28:23;8.20;;;4.20;;
4909;SDS011;2470;49.868;8.660;2023-11-21T14:30:48;9.73;;;4.10;;
4909;SDS011;2470;49.868;8.660;2023-11-21T14:33:14;10.00;;;3.83;;
4909;SDS011;2470;49.868;8.660;2023-11-21T14:35:41;5.57;;;3.77;;
4909;SDS011;2470;49.868;8.660;2023-11-21T14:38:07;7.50;;;4.40;;
4909;SDS011;2470;49.868;8.660;2023-11-21T14:40:34;6.07;;;3.57;;
4909;SDS011;2470;49.868;8.660;2023-11-21T14:43:01;15.67;;;3.40;;
4909;SDS011;2470;49.868;8.660;2023-11-21T14:45:32;8.67;;;3.80;;
4909;SDS011;2470;49.868;8.660;2023-11-21T14:47:59;9.33;;;3.77;;
4909;SDS011;2470;49.868;8.660;2023-11-21T14:50:32;8.70;;;3.33;;
4909;SDS011;2470;49.868;8.660;2023-11-21T14:53:14;11.30;;;3.37;;
4909;SDS011;2470;49.868;8.660;2023-11-21T14:55:40;9.03;;;3.53;;
4909;SDS011;2470;49.868;8.660;2023-11-21T14:58:19;9.33;;;4.03;;
4909;SDS011;2470;49.868;8.660;2023-11-21T15:00:57;17.83;;;7.80;;
4909;SDS011;2470;49.868;8.660;2023-11-21T15:03:24;5.73;;;3.60;;
4909;SDS011;2470;49.868;8.660;2023-11-21T15:05:56;10.77;;;3.10;;
4909;SDS011;2470;49.868;8.660;2023-11-21T15:08:22;13.07;;;6.43;;
4909;SDS011;2470;49.868;8.660;2023-11-21T15:10:56;12.77;;;5.27;;
4909;SDS011;2470;49.868;8.660;2023-11-21T15:13:22;12.87;;;4.73;;
4909;SDS011;2470;49.868;8.660;2023-11-21T15:15:50;5.23;;;3.30;;
4909;SDS011;2470;49.868;8.660;2023-11-21T15:18:15;10.77;;;5.73;;
4909;SDS011;2470;49.868;8.660;2023-11-21T15:20:41;8.53;;;5.50;;
4909;SDS011;2470;49.868;8.660;2023-11-21T15:23:08;9.03;;;4.17;;
4909;SDS011;2470;49.868;8.660;2023-11-21T15:25:34;6.97;;;3.57;;
4909;SDS011;2470;49.868;8.660;2023-11-21T15:28:00;14.60;;;5.80;;
4909;SDS011;2470;49.868;8.660;2023-11-21T15:30:26;9.17;;;4.20;;